Flight Track Log - Related Links

Times and Time Zones

All times are in EDT time to prevent confusion due to time zone crossing. See the FLG3735 flight status page for this flight to view local times or setup timezone preferences in your user account.

Time Position Orientation Groundspeed Altitude Reporting Facility
EDT Latitude Longitude Course Direction KTS MPH feet Rate Location/Type
Mon 10:27:43 PM 42.2017 -83.3583 56° Northeast 142 163 1,300  Level Cleveland Center
Mon 10:28:50 PM 42.1497 -83.3447 169° South 197 227 3,300 1,791 Climbing Cleveland Center
Mon 10:29:57 PM 42.0947 -83.2975 147° Southeast 281 323 5,300 2,220 Climbing Cleveland Center
Mon 10:30:57 PM 42.1364 -83.2097 57° Northeast 294 338 8,000 2,274 Climbing Cleveland Center
Mon 10:31:00 PM 42.3167 -82.7493 82° East  Level FlightAware Approximate
Mon 10:31:32 PM 42.1478 -83.1569 74° East 290 334 8,900  Level Cleveland Center
Mon 10:31:58 PM 42.1678 -83.1017 64° Northeast 318 366 10,000 1,300 Climbing Cleveland Center
Mon 10:32:00 PM 42.3321 -82.5952 82° East  Level FlightAware Approximate
Mon 10:32:32 PM 42.1858 -83.0436 67° East 333 383 10,200  Level Cleveland Center
Mon 10:33:00 PM 42.3665 -82.4503 56° Northeast  Level FlightAware Approximate
Mon 10:33:32 PM 42.2239 -82.9161 68° East 356 410 12,000  Level Cleveland Center
Mon 10:34:32 PM 42.2639 -82.7856 67° East 367 422 13,900 1,650 Climbing Cleveland Center
Mon 10:35:32 PM 42.3083 -82.6469 67° East 379 436 15,300 1,550 Climbing Cleveland Center
Mon 10:36:32 PM 42.3503 -82.5078 68° East 390 449 17,000 1,800 Climbing Cleveland Center
Mon 10:37:32 PM 42.3650 -82.3619 82° East 390 449 18,900 1,400 Climbing Cleveland Center
Mon 10:38:32 PM 42.3675 -82.2075 89° East 390 449 19,800 1,000 Climbing Cleveland Center
Mon 10:39:32 PM 42.3800 -82.0503 84° East 412 474 20,900 1,250 Climbing Cleveland Center
Mon 10:40:32 PM 42.3944 -81.8961 83° East 423 487 22,300 1,250 Climbing Cleveland Center
Mon 10:41:32 PM 42.4086 -81.7192 84° East 431 496 23,400 1,150 Climbing Cleveland Center
Mon 10:42:32 PM 42.4206 -81.5619 84° East 425 489 24,600 1,100 Climbing Cleveland Center
Mon 10:43:32 PM 42.4322 -81.4017 84° East 425 489 25,600 850 Climbing Cleveland Center
Mon 10:44:32 PM 42.4436 -81.2417 84° East 425 489 26,300 650 Climbing Cleveland Center
Mon 10:45:32 PM 42.4486 -81.0783 88° East 420 483 26,900 350 Climbing Cleveland Center
Mon 10:46:32 PM 42.4264 -80.9150 100° East 432 497 27,000 50 Climbing Cleveland Center
Mon 10:47:32 PM 42.4058 -80.7464 99° East 449 517 27,000  Level Cleveland Center
Mon 10:48:32 PM 42.3853 -80.5747 99° East 454 522 27,000  Level Cleveland Center
Mon 10:49:32 PM 42.3683 -80.4231 99° East 454 522 27,000  Level Cleveland Center
Mon 10:50:32 PM 42.3847 -80.2458 83° East 454 522 27,000  Level Cleveland Center
Mon 10:51:32 PM 42.3986 -80.0742 84° East 469 540 27,000  Level Cleveland Center
Mon 10:52:32 PM 42.4142 -79.8772 84° East 469 540 27,000  Level Cleveland Center
Mon 10:53:32 PM 42.4297 -79.7000 83° East 469 540 27,000  Level Cleveland Center
Mon 10:54:32 PM 42.4428 -79.5253 84° East 469 540 27,000  Level Cleveland Center
Mon 10:55:32 PM 42.4558 -79.3478 84° East 464 534 27,000  Level Cleveland Center
Mon 10:56:32 PM 42.4725 -79.1731 83° East 464 534 27,000  Level Cleveland Center
Mon 10:57:32 PM 42.4847 -78.9925 85° East 464 534 27,000  Level Cleveland Center
Mon 10:58:32 PM 42.4989 -78.8203 84° East 464 534 27,000  Level Cleveland Center
Mon 10:59:32 PM 42.5106 -78.6425 85° East 464 534 27,000  Level Cleveland Center
Mon 11:00:32 PM 42.5219 -78.4647 85° East 464 534 27,000  Level Cleveland Center
Mon 11:01:32 PM 42.5353 -78.2867 84° East 464 534 27,000  Level Cleveland Center
Mon 11:02:32 PM 42.5464 -78.1114 85° East 464 534 27,000  Level Cleveland Center
Mon 11:03:32 PM 42.5569 -77.9336 85° East 464 534 27,000  Level Cleveland Center
Mon 11:04:32 PM 42.5678 -77.7753 85° East 464 534 27,000  Level Cleveland Center
Mon 11:05:32 PM 42.5781 -77.5969 85° East 464 534 27,000  Level Cleveland Center
Mon 11:07:17 PM 42.5981 -77.2642 85° East 483 556 27,000  Level Boston Center
Mon 11:08:17 PM 42.6094 -77.0900 85° East 476 548 27,000  Level Boston Center
Mon 11:09:18 PM 42.6186 -76.9128 86° East 471 542 27,000  Level Boston Center
Mon 11:10:17 PM 42.6275 -76.7383 86° East 471 542 27,000  Level Boston Center
Mon 11:11:17 PM 42.6383 -76.5583 85° East 471 542 27,000  Level Boston Center
Mon 11:12:17 PM 42.6489 -76.3811 85° East 471 542 27,000  Level Boston Center
Mon 11:13:17 PM 42.6569 -76.2039 86° East 471 542 27,000  Level Boston Center
Mon 11:14:17 PM 42.6650 -76.0236 86° East 471 542 27,000  Level Boston Center
Mon 11:15:17 PM 42.6725 -75.8461 87° East 471 542 27,000  Level Boston Center
Mon 11:16:17 PM 42.6797 -75.6683 87° East 477 549 27,000 -1,050 Level Boston Center
Mon 11:17:17 PM 42.6889 -75.4881 86° East 477 549 24,900 -2,281 Descending Boston Center
Mon 11:18:18 PM 42.6950 -75.3303 87° East 477 549 22,400 -2,471 Descending Boston Center
Mon 11:19:16 PM 42.7014 -75.1553 87° East 459 528 20,000 -2,389 Descending Boston Center
Mon 11:20:11 PM 42.7072 -75.0000 87° East 450 518 17,900 -2,367 Descending Boston Center
Mon 11:21:05 PM 42.7144 -74.8564 86° East 421 484 15,700 -2,243 Descending Boston Center
Mon 11:22:06 PM 42.7072 -74.7006 94° East 410 472 13,600 -1,967 Descending Boston Center
Mon 11:23:07 PM 42.6811 -74.5469 103° East 410 472 11,700 -1,587 Descending Boston Center
Mon 11:24:07 PM 42.6564 -74.4078 104° East 336 387 10,400 -1,289 Descending Boston Center
Mon 11:25:08 PM 42.6394 -74.2944 101° East 292 336 9,100 -1,388 Descending Boston Center
Mon 11:26:08 PM 42.6206 -74.1839 103° East 299 344 7,600 -1,636 Descending Boston Center
Mon 11:27:09 PM 42.6033 -74.0789 103° East 290 334 5,800 -1,770 Descending Boston Center
Mon 11:28:10 PM 42.5839 -73.9769 104° East 275 316 4,000 -1,140 Descending Boston Center
Mon 11:29:10 PM 42.5831 -73.8811 91° East 227 261 3,500 -730 Descending Boston Center
Mon 11:30:05 PM 42.6025 -73.8194 67° East 196 226 2,600 -614 Descending Boston Center
Mon 11:31:17 PM 42.6553 -73.7753 32° Northeast 193 222 2,200 -843 Descending Boston Center
Mon 11:32:06 PM 42.7028 -73.8075 334° Northwest 158 182 900 -1,592 Descending Boston Center
Mon 11:35:00 PM 42.7333 -73.8000 North  Level FlightAware Approximate
Mon 11:42:00 PM 42.7491 -73.8020 North  Level Estimated

Login

Don't have an account? Register now (free) for customized features, flight alerts, and more!